Rabbit Lake, Canada
Current Conditions -  °F | °C
As of 4:43 AM on Saturday 22 Nov 2014 (Local Time) from CYQW Reporting Station
Overcast Overcast  
Wind Chill: 10°   Ceiling: 600
Heat Index: 25°   Visibility: 9mi
Dew Point: 23°   Wind: 22mph
Humidity: 93%   Direction: 110°ESE
Pressure: 29.41"   Gusts: NA
Location:  53.13°N, 107.77°W
Report Text: CYQW 221043Z AUTO 11019KT 9SM OVC006 M04/M05 A2941 RMK PRESFR SLP984
Loading
Personal Weather Stations






























Interactive Weather Map New forecast layout! Learn more

10-Day Weather Forecast

Advertisements
Track Severe Weather on mobile